Time;durP1;ratioP1;P1;durP2;ratioP2;P2;SDS_P1;SDS_P2;PMS_P1;PMS_P2;Temp;Humidity;BMP_temperature;BMP_pressure;BME280_temperature;BME280_humidity;BME280_pressure;Samples;Min_cycle;Max_cycle;Signal;HPM_P1;HPM_P2
2023/07/11 00:01:31;;;;;;;6.72;2.78;;;;;17.80;101156.00;;;;10126782;29;20215;-79
2023/07/11 00:06:33;;;;;;;4.15;2.50;;;;;17.60;101149.00;;;;10131761;29;20666;-77
2023/07/11 00:11:35;;;;;;;9.07;2.97;;;;;17.50;101145.00;;;;10132435;29;20246;-78
2023/07/11 00:16:36;;;;;;;5.00;2.97;;;;;17.50;101149.00;;;;10119217;29;20204;-78
2023/07/11 00:21:38;;;;;;;4.10;2.38;;;;;17.40;101138.00;;;;10132312;29;20565;-78
2023/07/11 00:26:39;;;;;;;8.95;2.97;;;;;17.30;101139.00;;;;10127904;29;20219;-78
2023/07/11 00:31:41;;;;;;;5.47;2.92;;;;;17.30;101142.00;;;;10121796;29;20216;-79
2023/07/11 00:36:42;;;;;;;4.13;2.78;;;;;17.30;101131.00;;;;10137424;29;20687;-78
2023/07/11 00:41:45;;;;;;;6.78;2.88;;;;;17.30;101126.00;;;;10109584;29;20208;-78
2023/07/11 00:46:47;;;;;;;5.57;3.00;;;;;17.20;101121.00;;;;10113708;29;20232;-79
2023/07/11 00:51:53;;;;;;;7.78;3.58;;;;;17.10;101112.00;;;;10123338;29;20226;-78
2023/07/11 00:56:57;;;;;;;4.25;2.50;;;;;17.00;101119.00;;;;10110415;29;20223;-79
2023/07/11 01:02:08;;;;;;;5.15;2.95;;;;;17.00;101115.00;;;;10113871;29;20282;-74
2023/07/11 01:07:13;;;;;;;7.05;3.17;;;;;16.90;101109.00;;;;10095805;29;20239;-78
2023/07/11 01:12:17;;;;;;;6.78;2.72;;;;;16.90;101107.00;;;;10123852;29;20219;-78
2023/07/11 01:17:28;;;;;;;8.38;3.33;;;;;16.80;101101.00;;;;10104344;29;20539;-76
2023/07/11 01:22:31;;;;;;;4.43;3.00;;;;;16.80;101103.00;;;;10106748;29;20212;-77
2023/07/11 01:27:32;;;;;;;5.93;2.72;;;;;16.70;101087.00;;;;10111349;29;20551;-76
2023/07/11 01:32:34;;;;;;;6.63;3.00;;;;;16.60;101087.00;;;;10110456;29;20211;-77
2023/07/11 01:37:35;;;;;;;6.72;2.78;;;;;16.60;101079.00;;;;10116198;29;20208;-74
2023/07/11 01:42:37;;;;;;;4.90;2.97;;;;;16.50;101085.00;;;;10079550;29;20440;-78
2023/07/11 01:47:39;;;;;;;4.95;2.90;;;;;16.30;101074.00;;;;10098999;29;20626;-75
2023/07/11 01:52:41;;;;;;;4.05;2.70;;;;;16.20;101070.00;;;;10108575;29;20314;-77
2023/07/11 01:57:42;;;;;;;5.80;3.05;;;;;16.20;101066.00;;;;10118987;29;20522;-76
2023/07/11 02:02:44;;;;;;;5.78;3.00;;;;;16.10;101063.00;;;;10122797;29;20211;-78
2023/07/11 02:07:45;;;;;;;4.75;2.63;;;;;16.00;101061.00;;;;10100110;29;20211;-78
2023/07/11 02:12:46;;;;;;;9.13;3.42;;;;;16.00;101052.00;;;;10107380;29;20245;-76
2023/07/11 02:17:48;;;;;;;8.43;3.37;;;;;15.90;101044.00;;;;10108945;29;20199;-77
2023/07/11 02:22:50;;;;;;;4.30;3.13;;;;;15.90;101049.00;;;;10104918;29;20694;-77
2023/07/11 02:27:51;;;;;;;4.53;3.05;;;;;15.90;101043.00;;;;10118049;29;20255;-77
2023/07/11 02:32:52;;;;;;;6.00;3.07;;;;;15.90;101048.00;;;;10100453;29;20247;-78
2023/07/11 02:37:54;;;;;;;7.18;3.53;;;;;15.80;101035.00;;;;10117369;29;20207;-78
2023/07/11 02:42:55;;;;;;;7.88;3.80;;;;;15.80;101032.00;;;;10111971;29;20208;-78
2023/07/11 02:47:57;;;;;;;9.02;3.58;;;;;15.80;101024.00;;;;10113718;29;20714;-78
2023/07/11 02:52:58;;;;;;;6.43;3.85;;;;;15.90;101020.00;;;;10103534;29;20262;-79
2023/07/11 02:57:59;;;;;;;10.27;4.00;;;;;15.90;101010.00;;;;10098531;29;20258;-78
2023/07/11 03:03:00;;;;;;;6.20;3.47;;;;;15.80;101007.00;;;;10115468;29;20198;-79
2023/07/11 03:08:02;;;;;;;6.05;3.58;;;;;15.80;101013.00;;;;10104599;29;20672;-78
2023/07/11 03:13:04;;;;;;;7.50;3.90;;;;;15.70;101004.00;;;;10094066;29;20579;-76
2023/07/11 03:18:07;;;;;;;9.75;4.53;;;;;15.70;100998.00;;;;10100027;29;20294;-78
2023/07/11 03:23:12;;;;;;;8.57;3.90;;;;;15.80;100991.00;;;;10097838;29;20195;-76
2023/07/11 03:28:14;;;;;;;8.50;3.90;;;;;15.90;100993.00;;;;10116347;29;20278;-76
2023/07/11 03:33:16;;;;;;;6.60;3.72;;;;;15.80;100984.00;;;;10115554;29;20255;-78
2023/07/11 03:38:18;;;;;;;6.80;3.72;;;;;15.70;100980.00;;;;10116641;29;20555;-76
2023/07/11 03:43:19;;;;;;;7.97;3.70;;;;;15.60;100978.00;;;;10118448;29;20334;-78
2023/07/11 03:48:21;;;;;;;6.70;3.70;;;;;15.50;100973.00;;;;10105694;29;20396;-79
2023/07/11 03:53:23;;;;;;;9.52;3.60;;;;;15.50;100964.00;;;;10107407;29;20306;-79
2023/07/11 03:58:25;;;;;;;8.10;4.07;;;;;15.60;100965.00;;;;10122737;29;20218;-77
2023/07/11 04:03:27;;;;;;;7.28;3.65;;;;;15.60;100956.00;;;;10110276;29;20211;-78
2023/07/11 04:08:28;;;;;;;10.00;4.05;;;;;15.70;100951.00;;;;10109384;29;20203;-76
2023/07/11 04:13:30;;;;;;;6.28;4.38;;;;;15.90;100954.00;;;;10125964;29;20242;-75
2023/07/11 04:18:31;;;;;;;8.05;4.00;;;;;15.90;100949.00;;;;10120856;29;20708;-78
2023/07/11 04:23:32;;;;;;;6.70;3.90;;;;;16.10;100951.00;;;;10109732;29;20212;-76
2023/07/11 04:28:33;;;;;;;11.95;3.83;;;;;16.30;100954.00;;;;10127104;29;20654;-76
2023/07/11 04:33:35;;;;;;;8.00;5.47;;;;;16.50;100951.00;;;;10123869;29;20218;-78
2023/07/11 04:38:37;;;;;;;8.50;3.92;;;;;16.60;100942.00;;;;10103477;29;20208;-77
2023/07/11 04:43:39;;;;;;;14.85;4.30;;;;;16.70;100939.00;;;;10123697;29;20888;-77
2023/07/11 04:48:40;;;;;;;10.10;3.72;;;;;16.90;100934.00;;;;10123217;29;20207;-76
2023/07/11 04:53:42;;;;;;;4.72;3.50;;;;;17.10;100941.00;;;;10126314;29;20290;-75
2023/07/11 04:58:43;;;;;;;7.68;4.30;;;;;17.40;100930.00;;;;10102079;29;20727;-80
2023/07/11 05:03:45;;;;;;;7.82;3.45;;;;;17.70;100923.00;;;;10092444;29;20527;-76
2023/07/11 05:08:46;;;;;;;6.18;3.15;;;;;18.10;100926.00;;;;10120990;29;20250;-80
2023/07/11 05:13:51;;;;;;;7.15;3.10;;;;;18.70;100913.00;;;;10100099;29;20786;-77
2023/07/11 05:18:54;;;;;;;8.02;2.95;;;;;19.20;100918.00;;;;10107445;29;20211;-76
2023/07/11 05:23:56;;;;;;;9.18;3.15;;;;;19.80;100914.00;;;;10103836;29;20235;-76
2023/07/11 05:28:57;;;;;;;5.22;3.20;;;;;20.30;100908.00;;;;10125519;29;20208;-78
2023/07/11 05:33:58;;;;;;;8.20;3.30;;;;;20.80;100899.00;;;;10110558;29;20247;-78
2023/07/11 05:39:15;;;;;;;6.13;2.78;;;;;20.70;100893.00;;;;10114561;29;20301;-74
2023/07/11 05:44:17;;;;;;;9.27;2.90;;;;;20.80;100889.00;;;;10127364;29;20570;-73
2023/07/11 05:49:18;;;;;;;5.70;2.97;;;;;21.80;100887.00;;;;10139177;29;20236;-72
2023/07/11 05:54:20;;;;;;;6.60;2.78;;;;;22.60;100889.00;;;;10109073;29;20594;-75
2023/07/11 05:59:22;;;;;;;6.00;2.63;;;;;23.20;100875.00;;;;10117652;29;20239;-77
2023/07/11 06:04:23;;;;;;;4.82;2.55;;;;;23.80;100880.00;;;;10119451;29;20601;-78
2023/07/11 06:09:25;;;;;;;6.95;2.92;;;;;24.20;100877.00;;;;10106696;29;20212;-77
2023/07/11 06:14:27;;;;;;;4.18;2.40;;;;;24.70;100870.00;;;;10127022;29;20827;-78
2023/07/11 06:19:28;;;;;;;5.45;2.60;;;;;25.10;100868.00;;;;10114398;29;20230;-77
2023/07/11 06:24:29;;;;;;;6.63;2.78;;;;;25.60;100868.00;;;;10131206;29;20306;-80
2023/07/11 06:29:31;;;;;;;4.72;2.42;;;;;26.10;100865.00;;;;10133663;29;20212;-77
2023/07/11 06:34:33;;;;;;;8.13;2.83;;;;;26.40;100860.00;;;;10135918;29;20282;-77
2023/07/11 06:39:34;;;;;;;7.30;2.38;;;;;26.80;100862.00;;;;10132091;29;20199;-78
2023/07/11 06:44:36;;;;;;;4.53;2.13;;;;;27.20;100860.00;;;;10139033;29;20263;-78
2023/07/11 06:49:37;;;;;;;3.95;1.77;;;;;27.60;100863.00;;;;10125687;29;20207;-86
2023/07/11 06:54:39;;;;;;;6.60;2.00;;;;;27.60;100861.00;;;;10132791;29;20231;-75
2023/07/11 06:59:41;;;;;;;5.60;2.20;;;;;27.90;100850.00;;;;10108773;29;20303;-81
2023/07/11 07:04:42;;;;;;;4.97;1.90;;;;;28.60;100851.00;;;;10120779;29;20207;-78
2023/07/11 07:09:43;;;;;;;8.15;1.92;;;;;29.00;100850.00;;;;10131412;29;20219;-78
2023/07/11 07:14:45;;;;;;;6.00;1.88;;;;;28.50;100861.00;;;;10131006;29;20227;-79
2023/07/11 07:19:46;;;;;;;4.93;1.90;;;;;27.80;100862.00;;;;10134654;29;20267;-78
2023/07/11 07:24:47;;;;;;;6.50;2.40;;;;;26.80;100851.00;;;;10116569;29;20211;-79
2023/07/11 07:29:49;;;;;;;5.30;1.95;;;;;27.30;100838.00;;;;10115314;29;20701;-80
2023/07/11 07:34:50;;;;;;;3.88;1.90;;;;;28.90;100833.00;;;;10112270;29;20294;-78
2023/07/11 07:39:51;;;;;;;4.53;1.73;;;;;30.60;100824.00;;;;10122828;29;20211;-74
2023/07/11 07:44:54;;;;;;;8.32;2.17;;;;;30.90;100831.00;;;;10111864;29;20207;-77
2023/07/11 07:49:55;;;;;;;6.85;2.42;;;;;31.70;100825.00;;;;10119252;29;20238;-83
2023/07/11 07:55:00;;;;;;;7.50;1.85;;;;;32.50;100825.00;;;;10122320;29;20231;-79
2023/07/11 08:00:02;;;;;;;8.35;2.05;;;;;33.00;100814.00;;;;10127857;29;20258;-79
2023/07/11 08:05:04;;;;;;;3.95;1.85;;;;;33.50;100812.00;;;;10126466;29;20216;-78
2023/07/11 08:10:05;;;;;;;5.57;1.90;;;;;33.80;100811.00;;;;10131325;29;20674;-76
2023/07/11 08:15:08;;;;;;;4.40;2.03;;;;;33.80;100810.00;;;;10130190;29;20279;-76
2023/07/11 08:20:09;;;;;;;7.95;2.03;;;;;33.30;100801.00;;;;10103789;29;20220;-78
2023/07/11 08:25:11;;;;;;;6.85;2.15;;;;;33.60;100802.00;;;;10115718;29;20229;-78
2023/07/11 08:30:13;;;;;;;10.82;2.10;;;;;33.10;100789.00;;;;10125090;29;20231;-79
2023/07/11 08:35:14;;;;;;;8.77;2.40;;;;;33.30;100786.00;;;;10109202;29;20607;-79
2023/07/11 08:40:21;;;;;;;8.38;2.42;;;;;33.70;100787.00;;;;10134458;29;20670;-78
2023/07/11 08:45:46;;;;;;;8.60;2.45;;;;;33.70;100773.00;;;;10135037;29;20211;-79
2023/07/11 08:51:03;;;;;;;6.20;2.25;;;;;33.90;100772.00;;;;10127976;29;20223;-79
2023/07/11 08:56:36;;;;;;;6.97;2.28;;;;;33.40;100781.00;;;;10126191;29;20212;-79
2023/07/11 09:01:57;;;;;;;5.70;2.25;;;;;33.20;100772.00;;;;10122437;29;20291;-78
2023/07/11 09:07:14;;;;;;;5.90;2.22;;;;;33.40;100772.00;;;;10127132;29;20211;-78
2023/07/11 09:12:38;;;;;;;5.00;1.95;;;;;33.20;100759.00;;;;10126527;29;20234;-79
2023/07/11 09:17:50;;;;;;;9.63;2.28;;;;;33.50;100752.00;;;;10117940;29;20864;-79
2023/07/11 09:23:29;;;;;;;5.15;2.33;;;;;34.00;100753.00;;;;10128392;29;20223;-78
2023/07/11 09:28:40;;;;;;;5.57;2.17;;;;;34.70;100758.00;;;;10127299;29;20271;-78
2023/07/11 09:33:49;;;;;;;6.82;2.40;;;;;35.40;100748.00;;;;10129051;29;20220;-78
2023/07/11 09:38:58;;;;;;;6.35;2.35;;;;;35.90;100734.00;;;;10125886;29;20207;-79
2023/07/11 09:44:00;;;;;;;6.05;2.28;;;;;36.20;100729.00;;;;10141126;29;20204;-79
2023/07/11 09:49:04;;;;;;;6.05;1.90;;;;;36.60;100727.00;;;;10136910;29;20207;-78
2023/07/11 09:54:27;;;;;;;4.38;2.20;;;;;36.00;100725.00;;;;10119951;29;20230;-79
2023/07/11 09:59:28;;;;;;;8.07;2.42;;;;;36.70;100716.00;;;;10147316;29;20207;-79
2023/07/11 10:04:31;;;;;;;6.38;2.40;;;;;36.80;100716.00;;;;10152609;29;20211;-79
2023/07/11 10:09:42;;;;;;;6.22;2.33;;;;;36.80;100712.00;;;;10134576;29;20231;-79
2023/07/11 10:14:46;;;;;;;5.75;2.45;;;;;36.50;100704.00;;;;10136393;29;20219;-79
2023/07/11 10:19:50;;;;;;;10.52;2.50;;;;;36.40;100692.00;;;;10126179;29;20223;-79
2023/07/11 10:25:19;;;;;;;7.53;2.40;;;;;36.80;100697.00;;;;10141962;29;20246;-80
2023/07/11 10:30:25;;;;;;;8.10;2.67;;;;;37.40;100700.00;;;;10134897;29;20220;-79
2023/07/11 10:35:27;;;;;;;8.57;2.50;;;;;36.20;100699.00;;;;10129689;29;20215;-80
2023/07/11 10:40:32;;;;;;;6.80;2.45;;;;;35.70;100691.00;;;;10148154;29;20207;-78
2023/07/11 10:45:40;;;;;;;5.07;2.30;;;;;36.50;100672.00;;;;10129172;29;20295;-79
2023/07/11 10:50:46;;;;;;;9.15;2.63;;;;;37.30;100673.00;;;;10132371;29;20218;-78
2023/07/11 10:55:55;;;;;;;6.82;2.33;;;;;38.10;100671.00;;;;10139417;29;20551;-80
2023/07/11 11:01:06;;;;;;;4.93;2.63;;;;;38.40;100667.00;;;;10122660;29;20215;-76
2023/07/11 11:06:25;;;;;;;6.00;2.60;;;;;38.30;100661.00;;;;10121953;29;20211;-76
2023/07/11 11:11:44;;;;;;;4.32;2.60;;;;;38.20;100655.00;;;;10105393;29;20230;-77
2023/07/11 11:17:07;;;;;;;6.60;2.90;;;;;38.10;100652.00;;;;10102284;29;20233;-77
2023/07/11 11:22:28;;;;;;;3.88;2.50;;;;;38.80;100641.00;;;;10102014;29;20461;-76
2023/07/11 11:27:52;;;;;;;6.75;2.33;;;;;38.80;100646.00;;;;10106198;29;20670;-76
2023/07/11 11:33:16;;;;;;;4.88;2.58;;;;;39.00;100633.00;;;;10099183;29;20339;-76
2023/07/11 11:38:30;;;;;;;8.65;2.30;;;;;38.90;100630.00;;;;10089388;29;20215;-77
2023/07/11 11:43:34;;;;;;;4.40;2.28;;;;;38.40;100635.00;;;;10103303;29;20209;-77
2023/07/11 11:48:59;;;;;;;4.43;2.55;;;;;38.40;100625.00;;;;10105059;29;20191;-78
2023/07/11 11:54:13;;;;;;;7.45;2.50;;;;;38.80;100615.00;;;;10101875;29;20218;-76
2023/07/11 11:59:21;;;;;;;6.30;2.50;;;;;39.30;100626.00;;;;10106097;29;20206;-78
2023/07/11 12:04:35;;;;;;;4.72;1.90;;;;;39.20;100614.00;;;;10110637;29;20203;-78
2023/07/11 12:09:48;;;;;;;3.95;2.20;;;;;39.40;100614.00;;;;10129060;29;20208;-77
2023/07/11 12:14:50;;;;;;;9.70;2.35;;;;;39.30;100603.00;;;;10135684;29;20276;-76
2023/07/11 12:20:00;;;;;;;6.85;2.22;;;;;39.20;100607.00;;;;10150717;29;20198;-77
2023/07/11 12:25:20;;;;;;;5.05;1.90;;;;;39.60;100598.00;;;;10107296;29;20657;-77
2023/07/11 12:30:27;;;;;;;4.57;2.28;;;;;39.70;100590.00;;;;10119950;29;20207;-76
2023/07/11 12:35:35;;;;;;;4.15;2.08;;;;;39.20;100591.00;;;;10122633;29;20231;-78
2023/07/11 12:40:40;;;;;;;3.22;2.17;;;;;39.50;100564.00;;;;10127199;29;20214;-76
2023/07/11 12:45:47;;;;;;;4.03;2.00;;;;;39.40;100565.00;;;;10121675;29;20242;-76
2023/07/11 12:50:53;;;;;;;6.22;2.30;;;;;39.60;100566.00;;;;10125800;29;20219;-77
2023/07/11 12:55:54;;;;;;;6.20;2.20;;;;;39.60;100565.00;;;;10125879;29;20211;-76
2023/07/11 13:00:58;;;;;;;2.85;1.85;;;;;38.90;100554.00;;;;10133112;29;20665;-76
2023/07/11 13:06:04;;;;;;;2.88;1.85;;;;;39.00;100551.00;;;;10110322;29;20187;-77
2023/07/11 13:11:28;;;;;;;5.18;2.20;;;;;38.70;100551.00;;;;10133184;29;20374;-78
2023/07/11 13:16:38;;;;;;;5.22;2.30;;;;;37.40;100542.00;;;;10128221;29;20298;-79
2023/07/11 13:21:45;;;;;;;4.18;1.85;;;;;36.00;100521.00;;;;10142244;29;20221;-79
2023/07/11 13:26:50;;;;;;;5.28;2.20;;;;;36.90;100532.00;;;;10139924;29;20211;-77
2023/07/11 13:32:04;;;;;;;5.53;1.73;;;;;37.00;100531.00;;;;10139245;29;20225;-80
2023/07/11 13:37:08;;;;;;;11.27;2.17;;;;;38.00;100512.00;;;;10133752;29;20286;-79
2023/07/11 13:42:11;;;;;;;5.18;2.10;;;;;36.80;100520.00;;;;10115072;29;20208;-80
2023/07/11 13:47:21;;;;;;;5.47;1.92;;;;;36.50;100518.00;;;;10133379;29;20199;-80
2023/07/11 13:52:32;;;;;;;5.55;2.20;;;;;35.70;100504.00;;;;10137684;29;20227;-79
2023/07/11 13:57:34;;;;;;;5.15;2.08;;;;;35.90;100517.00;;;;10132347;29;20204;-79
2023/07/11 14:02:36;;;;;;;5.22;2.30;;;;;35.60;100500.00;;;;10146397;29;20695;-79
2023/07/11 14:07:38;;;;;;;4.32;2.08;;;;;35.90;100493.00;;;;10177399;29;20648;-79
2023/07/11 14:12:40;;;;;;;7.03;2.13;;;;;36.40;100484.00;;;;10176605;29;20225;-79
2023/07/11 14:17:42;;;;;;;5.82;2.00;;;;;37.00;100488.00;;;;10161078;29;20211;-78
2023/07/11 14:22:45;;;;;;;7.18;2.38;;;;;37.10;100491.00;;;;10127077;29;20207;-77
2023/07/11 14:27:47;;;;;;;6.97;2.13;;;;;35.80;100491.00;;;;10130683;29;20634;-78
2023/07/11 14:32:48;;;;;;;4.75;2.05;;;;;35.70;100484.00;;;;10134904;29;20220;-78
2023/07/11 14:37:50;;;;;;;5.40;2.22;;;;;35.30;100477.00;;;;10137368;29;20220;-78
2023/07/11 14:42:52;;;;;;;5.18;2.38;;;;;34.40;100472.00;;;;10138329;29;20267;-76
2023/07/11 14:47:53;;;;;;;2.78;1.80;;;;;34.00;100473.00;;;;10138677;29;20192;-77
2023/07/11 14:52:55;;;;;;;3.05;2.13;;;;;34.10;100474.00;;;;10134505;29;20228;-76
2023/07/11 14:57:57;;;;;;;5.05;2.33;;;;;34.20;100469.00;;;;10129413;29;20272;-79
2023/07/11 15:03:00;;;;;;;3.35;2.35;;;;;34.30;100465.00;;;;10126512;29;20207;-79
2023/07/11 15:08:14;;;;;;;4.93;2.17;;;;;34.10;100454.00;;;;10138719;29;20213;-76
2023/07/11 15:13:37;;;;;;;4.07;2.28;;;;;34.50;100445.00;;;;10133146;29;20223;-79
2023/07/11 15:18:43;;;;;;;10.13;2.10;;;;;35.50;100433.00;;;;10131449;29;20214;-79
2023/07/11 15:23:44;;;;;;;4.68;2.40;;;;;35.00;100436.00;;;;10109428;29;20672;-78
2023/07/11 15:28:45;;;;;;;3.20;1.90;;;;;34.00;100426.00;;;;10129621;29;20355;-78
2023/07/11 15:33:47;;;;;;;9.05;2.53;;;;;33.20;100428.00;;;;10134058;29;20222;-77
2023/07/11 15:38:48;;;;;;;3.72;1.88;;;;;32.70;100420.00;;;;10124220;29;20204;-78
2023/07/11 15:43:49;;;;;;;2.97;1.90;;;;;32.70;100409.00;;;;10106718;29;20207;-79
2023/07/11 15:48:53;;;;;;;4.57;2.22;;;;;32.60;100410.00;;;;10126969;29;20206;-79
2023/07/11 15:53:55;;;;;;;4.28;2.33;;;;;33.50;100408.00;;;;10131952;29;20278;-79
2023/07/11 15:58:56;;;;;;;4.82;2.35;;;;;33.30;100401.00;;;;10115281;29;20207;-77
2023/07/11 16:03:57;;;;;;;3.15;2.22;;;;;33.40;100392.00;;;;10135509;29;20313;-77
2023/07/11 16:09:00;;;;;;;5.95;2.10;;;;;32.90;100394.00;;;;10141589;29;20210;-77
2023/07/11 16:14:01;;;;;;;5.75;2.38;;;;;32.30;100378.00;;;;10121782;29;20714;-76
2023/07/11 16:19:35;;;;;;;4.20;2.20;;;;;31.90;100367.00;;;;10123350;29;20208;-76
2023/07/11 16:24:36;;;;;;;3.95;1.98;;;;;31.70;100362.00;;;;10099810;29;20232;-76
2023/07/11 16:29:38;;;;;;;2.95;2.00;;;;;31.80;100355.00;;;;10108176;29;20208;-77
2023/07/11 16:34:39;;;;;;;8.85;2.55;;;;;32.50;100345.00;;;;10114661;29;20223;-77
2023/07/11 16:39:42;;;;;;;7.85;2.25;;;;;32.20;100349.00;;;;10146209;29;20211;-77
2023/07/11 16:44:43;;;;;;;4.07;2.22;;;;;31.90;100340.00;;;;10117808;29;20235;-78
2023/07/11 16:49:50;;;;;;;4.78;2.00;;;;;32.10;100336.00;;;;10129865;29;20567;-76
2023/07/11 16:54:56;;;;;;;6.72;2.10;;;;;31.80;100331.00;;;;10130786;29;20232;-77
2023/07/11 16:59:57;;;;;;;4.57;2.17;;;;;31.60;100307.00;;;;10125815;29;20211;-77
2023/07/11 17:04:59;;;;;;;7.43;2.25;;;;;31.30;100309.00;;;;10122338;29;20267;-77
2023/07/11 17:10:01;;;;;;;3.45;1.85;;;;;30.80;100306.00;;;;10137573;29;20211;-77
2023/07/11 17:15:09;;;;;;;5.18;2.40;;;;;30.30;100302.00;;;;10120748;29;20215;-76
2023/07/11 17:20:20;;;;;;;3.90;1.92;;;;;30.20;100307.00;;;;10130535;29;20670;-78
2023/07/11 17:25:22;;;;;;;5.53;2.13;;;;;30.30;100300.00;;;;10137470;29;20246;-75
2023/07/11 17:30:23;;;;;;;4.60;1.60;;;;;30.00;100290.00;;;;10130581;29;20280;-76
2023/07/11 17:35:25;;;;;;;4.88;1.70;;;;;29.30;100286.00;;;;10125296;29;20298;-76
2023/07/11 17:40:27;;;;;;;5.75;1.98;;;;;29.20;100278.00;;;;10116440;29;20615;-77
2023/07/11 17:45:28;;;;;;;3.58;1.50;;;;;29.10;100280.00;;;;10136804;29;20271;-77
2023/07/11 17:50:32;;;;;;;4.30;1.77;;;;;28.80;100274.00;;;;10120832;29;20207;-77
2023/07/11 17:55:34;;;;;;;4.20;1.80;;;;;28.70;100272.00;;;;10135574;29;20230;-77
2023/07/11 18:00:36;;;;;;;2.42;1.48;;;;;28.30;100267.00;;;;10103922;29;20215;-77
2023/07/11 18:05:37;;;;;;;6.25;1.92;;;;;28.10;100272.00;;;;10135863;29;20571;-77
2023/07/11 18:10:39;;;;;;;6.00;1.90;;;;;27.80;100271.00;;;;10136388;29;20207;-77
2023/07/11 18:15:45;;;;;;;4.55;1.75;;;;;27.30;100279.00;;;;10134730;29;20237;-77
2023/07/11 18:20:46;;;;;;;3.08;1.67;;;;;27.10;100285.00;;;;10134439;29;20722;-77
2023/07/11 18:25:49;;;;;;;4.10;1.90;;;;;27.10;100294.00;;;;10146218;29;20207;-77
2023/07/11 18:30:51;;;;;;;4.00;1.92;;;;;26.80;100300.00;;;;10123652;29;20257;-77
2023/07/11 18:35:52;;;;;;;6.30;1.95;;;;;26.80;100302.00;;;;10132362;29;20226;-77
2023/07/11 18:40:54;;;;;;;5.90;1.70;;;;;26.10;100312.00;;;;10131067;29;20199;-77
2023/07/11 18:45:55;;;;;;;3.72;1.70;;;;;25.00;100310.00;;;;10121918;29;20204;-76
2023/07/11 18:50:56;;;;;;;4.80;1.40;;;;;24.40;100313.00;;;;10104718;29;20222;-76
2023/07/11 18:56:01;;;;;;;4.47;1.38;;;;;23.90;100330.00;;;;10133381;29;20230;-77
2023/07/11 19:01:02;;;;;;;3.53;1.30;;;;;23.50;100334.00;;;;10128511;29;20195;-76
2023/07/11 19:06:13;;;;;;;5.97;2.17;;;;;23.00;100349.00;;;;10124549;29;20599;-77
2023/07/11 19:11:14;;;;;;;5.35;2.20;;;;;22.80;100371.00;;;;10113743;29;20207;-77
2023/07/11 19:16:24;;;;;;;4.60;1.75;;;;;22.60;100369.00;;;;10118020;29;20258;-76
2023/07/11 19:21:25;;;;;;;6.38;2.45;;;;;22.30;100379.00;;;;10109246;29;20214;-77
2023/07/11 19:26:27;;;;;;;7.90;2.22;;;;;22.10;100409.00;;;;10108985;29;20446;-77
2023/07/11 19:31:28;;;;;;;14.48;2.30;;;;;21.90;100428.00;;;;10104717;29;20678;-77
2023/07/11 19:36:30;;;;;;;6.88;2.40;;;;;21.70;100443.00;;;;10101977;29;20674;-76
2023/07/11 19:41:33;;;;;;;11.05;3.00;;;;;21.60;100475.00;;;;10084667;29;20251;-77
2023/07/11 19:46:35;;;;;;;10.35;2.40;;;;;21.50;100462.00;;;;10098790;29;20666;-76
2023/07/11 19:51:36;;;;;;;8.45;2.42;;;;;21.50;100488.00;;;;10106674;29;20637;-77
2023/07/11 19:56:37;;;;;;;7.65;2.50;;;;;21.40;100488.00;;;;10112218;29;20199;-76
2023/07/11 20:01:39;;;;;;;7.70;2.28;;;;;21.40;100495.00;;;;10093413;29;20204;-77
2023/07/11 20:06:40;;;;;;;9.07;2.47;;;;;21.30;100486.00;;;;10110554;29;20211;-76
2023/07/11 20:11:41;;;;;;;5.15;2.55;;;;;21.40;100500.00;;;;10113469;29;20662;-77
2023/07/11 20:16:43;;;;;;;6.82;2.33;;;;;21.40;100498.00;;;;10107473;29;20203;-77
2023/07/11 20:21:44;;;;;;;4.15;2.20;;;;;21.40;100527.00;;;;10098535;29;20204;-77
2023/07/11 20:26:48;;;;;;;6.53;1.95;;;;;21.50;100490.00;;;;10102881;29;20935;-77
2023/07/11 20:31:49;;;;;;;6.97;1.85;;;;;21.50;100499.00;;;;10108909;29;20246;-77
2023/07/11 20:36:51;;;;;;;5.47;1.80;;;;;21.30;100520.00;;;;10116263;29;20211;-77
2023/07/11 20:41:52;;;;;;;7.55;2.58;;;;;21.30;100520.00;;;;10116581;29;20208;-76
2023/07/11 20:46:53;;;;;;;5.75;2.58;;;;;20.70;100532.00;;;;10108565;29;20493;-77
2023/07/11 20:51:55;;;;;;;11.18;3.35;;;;;20.20;100511.00;;;;10117979;29;20211;-76
2023/07/11 20:56:56;;;;;;;8.68;2.47;;;;;19.80;100513.00;;;;10109479;29;20274;-77
2023/07/11 21:01:58;;;;;;;4.68;2.72;;;;;19.60;100492.00;;;;10106316;29;20203;-76
2023/07/11 21:06:59;;;;;;;5.20;2.72;;;;;19.50;100506.00;;;;10100957;29;20302;-77
2023/07/11 21:12:00;;;;;;;5.72;2.35;;;;;19.40;100514.00;;;;10109902;29;20219;-76
2023/07/11 21:17:02;;;;;;;2.53;2.10;;;;;19.20;100485.00;;;;10119554;29;20267;-77
2023/07/11 21:22:09;;;;;;;4.97;2.35;;;;;18.90;100508.00;;;;10116539;29;20207;-76
2023/07/11 21:27:11;;;;;;;6.18;1.75;;;;;18.80;100496.00;;;;10103833;29;20475;-75
2023/07/11 21:32:18;;;;;;;5.70;2.13;;;;;18.70;100492.00;;;;10109201;29;20219;-76
2023/07/11 21:37:20;;;;;;;7.60;2.40;;;;;18.70;100484.00;;;;10114263;29;20215;-76
2023/07/11 21:42:21;;;;;;;4.25;2.60;;;;;18.60;100477.00;;;;10103102;29;20742;-77
2023/07/11 21:47:22;;;;;;;4.35;2.30;;;;;18.60;100473.00;;;;10103165;29;20674;-76
2023/07/11 21:52:24;;;;;;;4.80;2.20;;;;;18.50;100454.00;;;;10110999;29;20219;-76
2023/07/11 21:57:25;;;;;;;7.20;2.40;;;;;18.50;100452.00;;;;10116161;29;20213;-76
2023/07/11 22:02:26;;;;;;;2.95;2.13;;;;;18.40;100435.00;;;;10110026;29;20248;-76
2023/07/11 22:07:28;;;;;;;4.32;2.63;;;;;18.30;100441.00;;;;10114913;29;20214;-77
2023/07/11 22:12:30;;;;;;;3.97;2.22;;;;;18.20;100438.00;;;;10111730;29;20579;-76
2023/07/11 22:17:31;;;;;;;4.13;2.33;;;;;18.10;100445.00;;;;10116458;29;20235;-76
2023/07/11 22:22:33;;;;;;;7.68;2.70;;;;;18.00;100444.00;;;;10117921;29;20199;-75
2023/07/11 22:27:34;;;;;;;3.17;2.05;;;;;18.00;100458.00;;;;10111028;29;20199;-77
2023/07/11 22:32:35;;;;;;;4.55;2.20;;;;;17.90;100450.00;;;;10113168;29;20219;-77
2023/07/11 22:37:36;;;;;;;4.70;2.55;;;;;17.90;100455.00;;;;10110983;29;20356;-77
2023/07/11 22:42:40;;;;;;;11.35;2.58;;;;;17.80;100459.00;;;;10108468;29;20212;-76
2023/07/11 22:47:41;;;;;;;3.03;1.98;;;;;17.90;100455.00;;;;10119943;29;20365;-75
2023/07/11 22:52:43;;;;;;;3.65;2.10;;;;;17.90;100458.00;;;;10102421;29;20646;-78
2023/07/11 22:57:44;;;;;;;5.85;2.20;;;;;17.90;100451.00;;;;10108760;29;20203;-76
2023/07/11 23:02:47;;;;;;;4.03;2.42;;;;;17.80;100431.00;;;;10071470;29;20207;-76
2023/07/11 23:07:48;;;;;;;4.60;2.15;;;;;17.70;100413.00;;;;10104190;29;20710;-76
2023/07/11 23:12:50;;;;;;;2.50;2.00;;;;;17.70;100447.00;;;;10104945;29;20406;-77
2023/07/11 23:17:52;;;;;;;4.88;2.15;;;;;17.60;100453.00;;;;10118344;29;20259;-77
2023/07/11 23:22:54;;;;;;;4.80;1.88;;;;;17.60;100459.00;;;;10105798;29;20561;-77
2023/07/11 23:27:56;;;;;;;3.35;2.10;;;;;17.60;100457.00;;;;10114830;29;20267;-76
2023/07/11 23:32:58;;;;;;;3.90;1.83;;;;;17.70;100461.00;;;;10102783;29;20253;-76
2023/07/11 23:38:01;;;;;;;6.53;2.35;;;;;17.80;100468.00;;;;10101957;29;20204;-76
2023/07/11 23:43:06;;;;;;;2.45;1.63;;;;;17.90;100488.00;;;;10107572;29;20630;-77
2023/07/11 23:48:17;;;;;;;2.53;1.73;;;;;18.00;100502.00;;;;10107863;29;20204;-76
2023/07/11 23:53:19;;;;;;;3.80;1.60;;;;;18.10;100486.00;;;;10088404;29;20223;-76
2023/07/11 23:58:26;;;;;;;2.10;1.73;;;;;18.10;100498.00;;;;10117095;29;20211;-76
